Time;durP1;ratioP1;P1;durP2;ratioP2;P2;SDS_P1;SDS_P2;PMS_P1;PMS_P2;Temp;Humidity;BMP_temperature;BMP_pressure;BME280_temperature;BME280_humidity;BME280_pressure;Samples;Min_cycle;Max_cycle;Signal;HPM_P1;HPM_P2
2024/03/20 00:00:26;;;;;;;10.80;7.53;;;11.30;99.90;;;;;;784832;183;26592;-87
2024/03/20 00:02:52;;;;;;;11.33;6.07;;;11.20;99.90;;;;;;797420;180;26450;-88
2024/03/20 00:05:19;;;;;;;10.13;5.67;;;11.30;99.90;;;;;;799004;179;26500;-88
2024/03/20 00:07:45;;;;;;;12.40;6.97;;;11.30;99.90;;;;;;789104;179;26436;-88
2024/03/20 00:10:12;;;;;;;14.77;6.50;;;11.40;99.90;;;;;;804302;178;26495;-88
2024/03/20 00:12:40;;;;;;;9.33;5.33;;;11.40;99.90;;;;;;784601;183;26571;-88
2024/03/20 00:15:06;;;;;;;10.63;5.43;;;11.30;99.90;;;;;;802015;177;26475;-89
2024/03/20 00:17:34;;;;;;;7.70;5.33;;;11.30;99.90;;;;;;804820;178;26514;-88
2024/03/20 00:20:00;;;;;;;10.20;6.43;;;11.30;99.90;;;;;;803833;178;26450;-88
2024/03/20 00:22:27;;;;;;;8.57;5.23;;;11.30;99.90;;;;;;807728;174;26973;-88
2024/03/20 00:24:54;;;;;;;10.63;6.00;;;11.30;99.90;;;;;;806116;177;26443;-89
2024/03/20 00:27:21;;;;;;;11.00;6.73;;;11.30;99.90;;;;;;804911;178;26519;-88
2024/03/20 00:29:47;;;;;;;13.33;6.33;;;11.30;99.90;;;;;;802142;174;26485;-87
2024/03/20 00:32:14;;;;;;;12.47;7.30;;;11.30;99.90;;;;;;818752;175;26480;-88
2024/03/20 00:34:41;;;;;;;14.33;6.93;;;11.20;99.90;;;;;;816138;176;26457;-87
2024/03/20 00:37:07;;;;;;;10.67;6.83;;;11.20;99.90;;;;;;808126;176;26433;-88
2024/03/20 00:39:34;;;;;;;12.20;6.90;;;11.20;99.90;;;;;;812205;176;26467;-87
2024/03/20 00:42:01;;;;;;;9.60;6.43;;;11.20;99.90;;;;;;801986;174;26571;-87
2024/03/20 00:44:28;;;;;;;10.57;6.63;;;11.20;99.90;;;;;;809051;177;26421;-87
2024/03/20 00:46:54;;;;;;;10.87;6.20;;;11.20;99.90;;;;;;785558;181;26449;-87
2024/03/20 00:49:21;;;;;;;10.17;6.37;;;11.10;99.90;;;;;;809928;177;26437;-86
2024/03/20 00:51:48;;;;;;;10.50;6.87;;;11.20;99.90;;;;;;799565;174;26421;-87
2024/03/20 00:54:15;;;;;;;10.73;6.67;;;11.10;99.90;;;;;;801941;177;26428;-87
2024/03/20 00:56:42;;;;;;;12.43;7.40;;;11.10;99.90;;;;;;804038;178;26467;-88
2024/03/20 00:59:08;;;;;;;12.73;7.20;;;11.10;99.90;;;;;;790401;180;26452;-88
2024/03/20 01:01:35;;;;;;;17.93;7.50;;;11.10;99.90;;;;;;792570;178;26417;-88
2024/03/20 01:04:02;;;;;;;9.17;6.93;;;11.10;99.90;;;;;;798571;180;26444;-87
2024/03/20 01:06:29;;;;;;;11.10;6.57;;;11.10;99.90;;;;;;795909;180;26440;-87
2024/03/20 01:08:56;;;;;;;11.23;7.23;;;11.10;99.90;;;;;;793906;180;27640;-88
2024/03/20 01:11:22;;;;;;;13.43;7.17;;;11.00;99.90;;;;;;803423;177;26638;-88
2024/03/20 01:13:49;;;;;;;9.13;6.13;;;11.10;99.90;;;;;;813302;177;26440;-88
2024/03/20 01:16:16;;;;;;;10.27;6.30;;;11.10;99.90;;;;;;782564;174;26458;-88
2024/03/20 01:18:43;;;;;;;10.53;6.53;;;11.10;99.90;;;;;;795880;179;26465;-87
2024/03/20 01:21:10;;;;;;;9.27;6.83;;;11.00;99.90;;;;;;802581;179;27097;-88
2024/03/20 01:23:36;;;;;;;12.07;7.10;;;11.00;99.90;;;;;;795534;179;26493;-87
2024/03/20 01:26:03;;;;;;;10.33;6.83;;;11.00;99.90;;;;;;797944;180;26638;-87
2024/03/20 01:28:30;;;;;;;11.70;6.80;;;11.00;99.90;;;;;;803269;177;26469;-89
2024/03/20 01:30:56;;;;;;;13.60;7.97;;;11.00;99.90;;;;;;791162;180;26453;-87
2024/03/20 01:33:24;;;;;;;11.07;7.00;;;10.90;99.90;;;;;;789484;180;26488;-87
2024/03/20 01:36:05;;;;;;;13.47;7.40;;;10.90;99.90;;;;;;799362;171;26462;-83
2024/03/20 01:38:37;;;;;;;10.50;6.93;;;10.70;99.90;;;;;;827476;173;26430;-81
2024/03/20 01:41:09;;;;;;;10.43;6.60;;;10.70;99.90;;;;;;827869;173;26411;-82
2024/03/20 01:46:20;;;;;;;11.40;7.57;;;10.60;99.90;;;;;;805799;175;27323;-84
2024/03/20 01:51:25;;;;;;;11.87;7.50;;;10.60;99.90;;;;;;811216;175;26519;-82
2024/03/20 01:53:54;;;;;;;9.37;7.37;;;10.60;99.90;;;;;;807480;175;26429;-81
2024/03/20 01:56:21;;;;;;;14.07;7.43;;;10.60;99.90;;;;;;807040;176;26432;-82
2024/03/20 01:58:47;;;;;;;13.40;7.53;;;10.50;99.90;;;;;;803449;176;26530;-81
2024/03/20 02:01:14;;;;;;;14.80;7.57;;;10.50;99.90;;;;;;806291;175;26455;-83
2024/03/20 02:09:04;;;;;;;11.17;7.47;;;10.40;99.90;;;;;;808970;174;26503;-81
2024/03/20 02:14:02;;;;;;;14.27;9.23;;;10.40;99.90;;;;;;820288;169;26447;-89
2024/03/20 02:16:28;;;;;;;13.07;8.40;;;10.50;99.90;;;;;;830467;172;26423;-87
2024/03/20 02:18:55;;;;;;;13.70;8.20;;;10.40;99.90;;;;;;826889;172;26481;-86
2024/03/20 02:21:22;;;;;;;14.30;8.30;;;10.50;99.90;;;;;;804175;176;26469;-87
2024/03/20 02:23:48;;;;;;;12.83;7.80;;;10.40;99.90;;;;;;803398;177;26421;-88
2024/03/20 02:26:15;;;;;;;11.83;7.50;;;10.40;99.90;;;;;;808973;177;26434;-88
2024/03/20 02:28:42;;;;;;;12.80;8.90;;;10.40;99.90;;;;;;808670;174;26469;-90
2024/03/20 02:31:09;;;;;;;14.93;8.27;;;10.30;99.90;;;;;;815883;176;26443;-89
2024/03/20 02:36:17;;;;;;;13.37;7.90;;;10.30;99.90;;;;;;768322;181;26496;-79
2024/03/20 02:38:44;;;;;;;11.80;6.47;;;10.30;99.90;;;;;;791009;179;26987;-79
2024/03/20 02:41:10;;;;;;;12.97;8.63;;;10.30;99.90;;;;;;806094;177;26458;-80
2024/03/20 02:43:37;;;;;;;14.43;8.87;;;10.10;99.90;;;;;;805870;176;27042;-80
2024/03/20 02:46:04;;;;;;;17.10;8.60;;;10.10;99.90;;;;;;817088;176;26471;-79
2024/03/20 02:48:30;;;;;;;12.73;8.30;;;10.10;99.90;;;;;;817149;175;26407;-78
2024/03/20 02:50:57;;;;;;;13.90;7.63;;;10.10;99.90;;;;;;817789;175;26418;-80
2024/03/20 02:53:23;;;;;;;13.13;7.97;;;10.10;99.90;;;;;;816926;173;26602;-79
2024/03/20 02:55:50;;;;;;;10.53;7.00;;;10.10;99.90;;;;;;819903;175;26403;-79
2024/03/20 02:58:17;;;;;;;10.83;7.07;;;10.20;99.90;;;;;;820496;174;26487;-79
2024/03/20 03:00:43;;;;;;;11.07;7.27;;;10.30;99.90;;;;;;809428;175;26438;-79
2024/03/20 03:03:10;;;;;;;13.60;8.33;;;10.20;99.90;;;;;;815227;175;26415;-80
2024/03/20 03:05:36;;;;;;;13.73;7.80;;;10.20;99.90;;;;;;816181;175;26414;-80
2024/03/20 03:08:03;;;;;;;11.63;7.40;;;10.20;99.90;;;;;;810537;176;26429;-79
2024/03/20 03:10:30;;;;;;;15.47;9.40;;;10.10;99.90;;;;;;820966;172;26398;-77
2024/03/20 03:12:56;;;;;;;18.10;10.07;;;10.00;99.90;;;;;;821928;172;26401;-80
2024/03/20 03:15:23;;;;;;;11.97;7.70;;;10.10;99.90;;;;;;814877;176;26449;-80
2024/03/20 03:17:50;;;;;;;11.10;7.93;;;10.00;99.90;;;;;;815561;176;26444;-80
2024/03/20 03:20:19;;;;;;;10.07;7.00;;;10.00;99.90;;;;;;816947;175;26408;-79
2024/03/20 03:22:43;;;;;;;14.73;7.73;;;10.10;99.90;;;;;;822384;172;26381;-79
2024/03/20 03:25:10;;;;;;;10.43;7.57;;;10.10;99.90;;;;;;816092;176;26490;-79
2024/03/20 03:27:37;;;;;;;12.73;7.97;;;10.10;99.90;;;;;;809729;176;26440;-79
2024/03/20 03:30:04;;;;;;;13.67;7.67;;;10.00;99.90;;;;;;822994;171;26395;-79
2024/03/20 03:32:30;;;;;;;15.47;8.07;;;10.00;99.90;;;;;;824415;172;26407;-79
2024/03/20 03:34:57;;;;;;;14.43;8.57;;;10.10;99.90;;;;;;823653;172;26423;-79
2024/03/20 03:37:23;;;;;;;15.83;9.00;;;10.00;99.90;;;;;;813484;176;26427;-79
2024/03/20 03:39:50;;;;;;;13.80;8.70;;;10.10;99.90;;;;;;821215;172;26403;-79
2024/03/20 03:42:17;;;;;;;12.47;7.70;;;10.00;99.90;;;;;;817657;175;26985;-79
2024/03/20 03:44:43;;;;;;;15.47;8.30;;;9.90;99.90;;;;;;815807;175;26422;-80
2024/03/20 03:47:10;;;;;;;13.03;8.27;;;9.90;99.90;;;;;;814519;176;26420;-78
2024/03/20 03:49:36;;;;;;;14.60;8.93;;;9.90;99.90;;;;;;815410;175;26952;-79
2024/03/20 03:52:04;;;;;;;14.73;9.47;;;9.80;99.90;;;;;;815275;176;26403;-79
2024/03/20 03:54:30;;;;;;;14.43;8.83;;;9.80;99.90;;;;;;817093;174;26434;-79
2024/03/20 03:56:57;;;;;;;11.77;7.60;;;9.80;99.90;;;;;;809722;176;26423;-80
2024/03/20 03:59:24;;;;;;;11.87;8.80;;;9.90;99.90;;;;;;824458;172;26402;-79
2024/03/20 04:01:50;;;;;;;12.07;7.93;;;9.90;99.90;;;;;;823956;172;26396;-79
2024/03/20 04:04:17;;;;;;;13.03;8.23;;;9.90;99.90;;;;;;818858;172;26394;-79
2024/03/20 04:06:44;;;;;;;15.87;7.83;;;9.80;99.90;;;;;;819592;171;26411;-79
2024/03/20 04:09:11;;;;;;;13.00;8.07;;;9.80;99.90;;;;;;821133;172;26414;-80
2024/03/20 04:11:37;;;;;;;10.70;7.87;;;9.80;99.90;;;;;;821628;172;26410;-79
2024/03/20 04:14:04;;;;;;;14.17;8.33;;;9.80;99.90;;;;;;817226;175;26446;-79
2024/03/20 04:16:31;;;;;;;12.47;8.33;;;9.80;99.90;;;;;;821568;172;26410;-79
2024/03/20 04:18:57;;;;;;;13.57;8.77;;;9.70;99.90;;;;;;828113;172;26396;-78
2024/03/20 04:21:24;;;;;;;12.93;8.50;;;9.70;99.90;;;;;;820836;173;26407;-78
2024/03/20 04:23:50;;;;;;;13.77;8.47;;;9.70;99.90;;;;;;820170;175;26435;-79
2024/03/20 04:26:17;;;;;;;13.57;7.63;;;9.70;99.90;;;;;;819149;172;26555;-80
2024/03/20 04:28:44;;;;;;;17.20;8.27;;;9.80;99.90;;;;;;820604;174;26402;-79
2024/03/20 04:31:10;;;;;;;11.83;8.30;;;9.90;99.90;;;;;;814743;174;26419;-79
2024/03/20 04:33:37;;;;;;;13.23;8.00;;;9.90;99.90;;;;;;814739;175;26411;-79
2024/03/20 04:36:04;;;;;;;11.00;8.10;;;9.90;99.90;;;;;;826029;172;26447;-79
2024/03/20 04:38:31;;;;;;;14.47;8.47;;;9.80;99.90;;;;;;828764;172;26428;-79
2024/03/20 04:40:57;;;;;;;17.27;9.37;;;9.90;99.90;;;;;;817950;176;26519;-79
2024/03/20 04:43:24;;;;;;;14.87;9.20;;;9.90;99.90;;;;;;817706;173;26763;-79
2024/03/20 04:45:51;;;;;;;12.80;9.13;;;9.90;99.90;;;;;;817285;176;26414;-79
2024/03/20 04:48:17;;;;;;;16.07;9.37;;;9.90;99.90;;;;;;814314;176;26564;-79
2024/03/20 04:50:44;;;;;;;17.30;10.07;;;9.90;99.90;;;;;;788063;179;26448;-79
2024/03/20 04:53:11;;;;;;;16.77;9.43;;;9.90;99.90;;;;;;791077;179;26465;-79
2024/03/20 04:55:37;;;;;;;13.50;9.17;;;9.90;99.90;;;;;;794588;179;26466;-79
2024/03/20 04:58:04;;;;;;;16.43;9.73;;;9.90;99.90;;;;;;788211;179;26486;-80
2024/03/20 05:00:31;;;;;;;14.97;10.30;;;9.80;99.90;;;;;;790046;179;26621;-80
2024/03/20 05:02:57;;;;;;;15.00;9.60;;;9.90;99.90;;;;;;794893;179;26465;-80
2024/03/20 05:05:41;;;;;;;16.53;10.00;;;9.90;99.90;;;;;;794407;178;26477;-80
2024/03/20 05:08:15;;;;;;;15.60;11.20;;;9.80;99.90;;;;;;819804;174;26452;-79
2024/03/20 05:10:42;;;;;;;15.63;10.57;;;9.70;99.90;;;;;;824873;169;26949;-79
2024/03/20 05:13:10;;;;;;;15.67;10.27;;;9.70;99.90;;;;;;834947;171;26401;-79
2024/03/20 05:15:39;;;;;;;20.50;11.10;;;9.70;99.90;;;;;;836592;170;26384;-79
2024/03/20 05:18:05;;;;;;;17.43;10.40;;;9.60;99.90;;;;;;835645;171;26373;-79
2024/03/20 05:20:32;;;;;;;21.23;11.53;;;9.60;99.90;;;;;;838122;171;26967;-79
2024/03/20 05:22:59;;;;;;;15.13;10.17;;;9.60;99.90;;;;;;834300;170;26408;-79
2024/03/20 05:25:25;;;;;;;19.70;11.40;;;9.50;99.90;;;;;;832568;170;26428;-79
2024/03/20 05:27:52;;;;;;;18.40;12.03;;;9.50;99.90;;;;;;836859;170;26439;-79
2024/03/20 05:30:18;;;;;;;19.40;11.80;;;9.50;99.90;;;;;;834913;170;26930;-80
2024/03/20 05:32:45;;;;;;;18.93;11.93;;;9.50;99.90;;;;;;832367;170;26384;-80
2024/03/20 05:35:12;;;;;;;22.70;12.83;;;9.40;99.90;;;;;;831276;171;26427;-80
2024/03/20 05:37:38;;;;;;;17.93;12.40;;;9.50;99.90;;;;;;832165;170;26392;-80
2024/03/20 05:40:06;;;;;;;20.77;12.37;;;9.60;99.90;;;;;;832843;170;26419;-79
2024/03/20 05:42:32;;;;;;;21.33;11.93;;;9.60;99.90;;;;;;827580;171;26938;-79
2024/03/20 05:44:59;;;;;;;21.93;13.23;;;9.70;99.90;;;;;;836190;171;26457;-79
2024/03/20 05:47:26;;;;;;;21.33;12.83;;;9.70;99.90;;;;;;836263;170;26382;-79
2024/03/20 05:49:52;;;;;;;22.20;12.43;;;9.80;99.90;;;;;;833432;170;26391;-80
2024/03/20 05:52:19;;;;;;;21.67;13.10;;;9.80;99.90;;;;;;842134;170;26472;-80
2024/03/20 05:54:45;;;;;;;22.37;13.30;;;9.80;99.90;;;;;;836983;170;26947;-79
2024/03/20 05:57:12;;;;;;;21.87;12.93;;;9.80;99.90;;;;;;839457;170;26412;-80
2024/03/20 05:59:38;;;;;;;19.03;12.87;;;9.80;99.90;;;;;;835367;170;26392;-80
2024/03/20 06:02:05;;;;;;;19.33;13.13;;;9.80;99.90;;;;;;832609;171;26411;-81
2024/03/20 06:04:33;;;;;;;21.43;14.03;;;9.90;99.90;;;;;;837458;171;26411;-80
2024/03/20 06:06:58;;;;;;;29.10;15.50;;;9.90;99.90;;;;;;830639;170;26399;-80
2024/03/20 06:09:25;;;;;;;22.97;13.67;;;10.00;99.90;;;;;;835188;170;26372;-81
2024/03/20 06:11:51;;;;;;;18.53;13.70;;;10.00;99.90;;;;;;841187;170;26399;-80
2024/03/20 06:14:18;;;;;;;18.70;12.90;;;10.00;99.90;;;;;;836460;171;26425;-80
2024/03/20 06:16:45;;;;;;;24.97;12.80;;;10.10;99.90;;;;;;833559;171;26915;-80
2024/03/20 06:19:11;;;;;;;18.17;13.07;;;10.10;99.90;;;;;;829771;170;26389;-80
2024/03/20 06:21:39;;;;;;;20.53;13.93;;;10.20;99.90;;;;;;834869;170;26403;-81
2024/03/20 06:24:05;;;;;;;23.63;13.73;;;10.20;99.90;;;;;;829771;171;26440;-80
2024/03/20 06:26:31;;;;;;;19.43;13.77;;;10.20;99.90;;;;;;833355;171;26399;-80
2024/03/20 06:28:58;;;;;;;20.53;12.73;;;10.20;99.90;;;;;;835863;169;26384;-82
2024/03/20 06:31:25;;;;;;;19.40;13.00;;;10.30;99.90;;;;;;836687;170;26417;-81
2024/03/20 06:33:51;;;;;;;25.03;13.57;;;10.30;99.90;;;;;;836767;171;26411;-81
2024/03/20 06:36:18;;;;;;;23.93;14.80;;;10.30;99.90;;;;;;839722;170;26940;-81
2024/03/20 06:38:45;;;;;;;22.17;14.10;;;10.40;99.90;;;;;;836221;169;26436;-81
2024/03/20 06:41:18;;;;;;;21.67;14.10;;;10.40;99.90;;;;;;837156;169;26403;-81
2024/03/20 06:43:50;;;;;;;23.90;14.40;;;10.50;99.90;;;;;;829092;171;26392;-80
2024/03/20 06:46:19;;;;;;;20.00;14.63;;;10.60;99.90;;;;;;832692;170;26422;-80
2024/03/20 06:48:47;;;;;;;21.93;13.83;;;10.60;99.90;;;;;;835509;170;26378;-81
2024/03/20 06:51:12;;;;;;;25.00;14.67;;;10.70;99.90;;;;;;838731;170;26398;-80
2024/03/20 06:53:39;;;;;;;26.63;15.43;;;10.70;99.90;;;;;;830406;170;26423;-82
2024/03/20 06:56:06;;;;;;;23.57;13.90;;;10.80;99.90;;;;;;835653;170;26431;-83
2024/03/20 06:58:33;;;;;;;27.10;15.27;;;10.80;99.90;;;;;;833839;170;26388;-79
2024/03/20 07:00:59;;;;;;;22.73;15.10;;;10.90;99.90;;;;;;832606;171;26408;-81
2024/03/20 07:03:26;;;;;;;22.37;15.23;;;11.00;99.90;;;;;;835257;170;26418;-81
2024/03/20 07:05:54;;;;;;;24.73;15.47;;;11.10;99.90;;;;;;833598;170;26423;-81
2024/03/20 07:08:19;;;;;;;25.83;15.70;;;11.10;99.90;;;;;;832118;170;26407;-80
2024/03/20 07:10:47;;;;;;;32.27;16.00;;;11.10;99.90;;;;;;832541;170;26420;-82
2024/03/20 07:13:14;;;;;;;25.10;16.50;;;11.20;99.90;;;;;;832554;170;26918;-80
2024/03/20 07:15:43;;;;;;;28.27;16.03;;;11.20;99.90;;;;;;832297;170;26917;-81
2024/03/20 07:18:08;;;;;;;30.73;17.43;;;11.30;99.90;;;;;;832066;170;26423;-80
2024/03/20 07:20:37;;;;;;;30.30;17.10;;;11.30;99.90;;;;;;831987;170;26419;-80
2024/03/20 07:23:04;;;;;;;31.10;18.00;;;11.40;99.90;;;;;;832057;170;26495;-81
2024/03/20 07:25:31;;;;;;;29.00;17.53;;;11.40;99.90;;;;;;832106;170;26428;-81
2024/03/20 07:27:57;;;;;;;31.47;16.73;;;11.50;99.90;;;;;;832479;170;26391;-80
2024/03/20 07:30:24;;;;;;;26.03;15.70;;;11.50;99.90;;;;;;833537;170;26411;-81
2024/03/20 07:32:51;;;;;;;26.87;17.53;;;11.70;99.90;;;;;;835335;170;26386;-80
2024/03/20 07:35:20;;;;;;;31.43;18.27;;;11.70;99.90;;;;;;831728;171;26427;-80
2024/03/20 07:37:53;;;;;;;39.13;18.20;;;11.80;99.90;;;;;;837226;170;26395;-81
2024/03/20 07:40:24;;;;;;;29.37;17.53;;;11.90;99.90;;;;;;830740;170;26451;-81
2024/03/20 07:42:51;;;;;;;32.53;18.40;;;12.00;99.90;;;;;;834205;171;26458;-82
2024/03/20 07:45:17;;;;;;;30.97;19.17;;;12.00;99.90;;;;;;835028;171;26399;-81
2024/03/20 07:47:44;;;;;;;28.20;17.97;;;12.10;99.90;;;;;;841077;170;26384;-81
2024/03/20 07:50:14;;;;;;;30.63;18.03;;;12.10;99.90;;;;;;837105;171;26395;-81
2024/03/20 07:52:37;;;;;;;27.40;17.73;;;12.20;99.90;;;;;;830924;171;26934;-81
2024/03/20 07:55:05;;;;;;;26.67;17.53;;;12.30;99.90;;;;;;833977;171;26422;-81
2024/03/20 07:57:32;;;;;;;30.20;17.73;;;12.30;99.90;;;;;;831499;171;26387;-81
2024/03/20 07:59:57;;;;;;;27.90;18.03;;;12.30;99.90;;;;;;834410;171;26411;-80
2024/03/20 08:02:25;;;;;;;33.70;18.13;;;12.40;99.90;;;;;;827927;170;26448;-80
2024/03/20 08:04:52;;;;;;;30.50;16.80;;;12.50;99.90;;;;;;833163;171;26448;-80
2024/03/20 08:07:18;;;;;;;29.00;17.30;;;12.60;99.90;;;;;;829405;171;26386;-81
2024/03/20 08:09:46;;;;;;;31.73;18.23;;;12.70;99.90;;;;;;831618;170;26391;-82
2024/03/20 08:12:11;;;;;;;32.23;18.03;;;12.80;99.90;;;;;;833637;171;26399;-82
2024/03/20 08:14:38;;;;;;;26.33;16.97;;;12.90;99.90;;;;;;835616;170;26415;-81
2024/03/20 08:17:05;;;;;;;28.33;18.00;;;12.90;99.90;;;;;;832266;170;26376;-80
2024/03/20 08:19:32;;;;;;;28.13;17.30;;;13.00;99.90;;;;;;826157;171;26412;-80
2024/03/20 08:22:10;;;;;;;30.73;16.87;;;13.00;99.90;;;;;;839521;171;26391;-82
2024/03/20 08:24:43;;;;;;;34.50;17.30;;;13.10;99.90;;;;;;837446;170;26403;-81
2024/03/20 08:27:12;;;;;;;28.77;16.77;;;13.20;99.90;;;;;;835394;171;26394;-81
2024/03/20 08:29:41;;;;;;;29.20;17.43;;;13.20;99.90;;;;;;837623;170;26517;-82
2024/03/20 08:32:09;;;;;;;25.10;17.07;;;13.30;99.90;;;;;;836357;170;26391;-82
2024/03/20 08:34:35;;;;;;;27.43;17.37;;;13.40;99.90;;;;;;839330;170;26403;-82
2024/03/20 08:37:04;;;;;;;22.80;15.57;;;13.40;99.90;;;;;;833324;171;26372;-81
2024/03/20 08:39:39;;;;;;;27.83;17.03;;;13.40;99.90;;;;;;834636;170;26458;-80
2024/03/20 08:42:05;;;;;;;26.83;17.10;;;13.60;99.90;;;;;;826426;171;26464;-80
2024/03/20 08:44:36;;;;;;;26.57;16.77;;;13.70;99.90;;;;;;835271;171;26543;-81
2024/03/20 08:47:07;;;;;;;22.60;16.37;;;13.90;99.90;;;;;;781224;180;26603;-85
2024/03/20 08:49:37;;;;;;;22.43;14.90;;;13.80;99.90;;;;;;785667;177;26510;-85
2024/03/20 08:52:07;;;;;;;28.73;15.60;;;14.00;99.90;;;;;;785946;179;26473;-84
2024/03/20 08:54:35;;;;;;;23.07;14.23;;;14.20;99.90;;;;;;789306;177;26451;-85
2024/03/20 08:57:07;;;;;;;30.57;15.33;;;14.10;99.90;;;;;;798447;177;26482;-86
2024/03/20 08:59:44;;;;;;;27.37;17.13;;;14.10;99.90;;;;;;805813;177;26478;-86
2024/03/20 09:02:14;;;;;;;27.77;16.40;;;14.20;99.90;;;;;;801499;177;26429;-87
2024/03/20 09:04:48;;;;;;;23.30;15.40;;;14.40;99.90;;;;;;806715;175;26476;-85
2024/03/20 09:07:18;;;;;;;24.23;16.00;;;14.50;99.90;;;;;;804507;177;26452;-86
2024/03/20 09:09:48;;;;;;;25.03;14.77;;;14.50;99.90;;;;;;803408;175;26481;-86
2024/03/20 09:12:20;;;;;;;22.70;15.07;;;14.80;99.90;;;;;;802108;177;26426;-85
2024/03/20 09:14:58;;;;;;;24.23;14.27;;;14.90;99.90;;;;;;807443;177;26781;-87
2024/03/20 09:17:34;;;;;;;20.73;13.60;;;14.90;99.90;;;;;;800099;177;26483;-86
2024/03/20 09:20:04;;;;;;;21.00;14.07;;;15.00;99.90;;;;;;806787;175;26464;-86
2024/03/20 09:22:38;;;;;;;20.40;13.87;;;15.20;99.90;;;;;;803735;177;26448;-87
2024/03/20 09:25:23;;;;;;;22.73;12.70;;;15.30;99.90;;;;;;799508;175;26446;-85
2024/03/20 09:27:50;;;;;;;21.73;12.43;;;15.40;99.90;;;;;;807493;173;26516;-83
2024/03/20 09:30:17;;;;;;;21.83;11.53;;;15.60;99.90;;;;;;790794;177;26475;-83
2024/03/20 09:32:53;;;;;;;20.53;11.37;;;15.70;99.90;;;;;;791793;180;26486;-84
2024/03/20 09:35:20;;;;;;;22.50;10.90;;;16.00;99.90;;;;;;777093;181;26508;-83
2024/03/20 09:37:46;;;;;;;20.63;11.10;;;16.20;99.90;;;;;;795897;181;26450;-84
2024/03/20 09:40:14;;;;;;;17.83;12.07;;;16.40;99.90;;;;;;790632;181;26479;-84
2024/03/20 09:42:40;;;;;;;16.40;11.47;;;16.60;99.90;;;;;;817559;176;26451;-83
2024/03/20 09:45:10;;;;;;;20.93;11.60;;;16.60;99.90;;;;;;804862;178;26935;-84
2024/03/20 09:47:38;;;;;;;16.37;10.50;;;16.70;99.90;;;;;;805043;178;26453;-83
2024/03/20 09:50:05;;;;;;;17.20;11.23;;;16.80;99.90;;;;;;804744;176;26424;-83
2024/03/20 09:52:33;;;;;;;17.83;11.30;;;16.90;99.90;;;;;;805254;179;26415;-83
2024/03/20 09:55:00;;;;;;;14.00;10.33;;;17.10;99.90;;;;;;804865;178;26418;-83
2024/03/20 09:57:31;;;;;;;16.13;9.63;;;17.30;99.90;;;;;;805112;179;26418;-83
2024/03/20 10:00:04;;;;;;;14.83;9.67;;;17.30;99.90;;;;;;823671;171;26462;-84
2024/03/20 10:02:34;;;;;;;15.87;10.17;;;17.40;99.90;;;;;;804030;177;26538;-83
2024/03/20 10:05:08;;;;;;;19.40;10.70;;;17.40;99.40;;;;;;793840;176;26493;-83
2024/03/20 10:07:36;;;;;;;17.93;10.03;;;17.30;99.90;;;;;;792779;181;26431;-83
2024/03/20 10:10:05;;;;;;;16.73;10.07;;;17.40;99.60;;;;;;792552;178;26472;-84
2024/03/20 10:12:31;;;;;;;16.93;10.43;;;17.60;98.20;;;;;;793019;180;26511;-82
2024/03/20 10:14:58;;;;;;;18.90;11.10;;;17.70;99.90;;;;;;791863;177;26488;-83
2024/03/20 10:17:25;;;;;;;15.57;11.33;;;17.80;99.90;;;;;;796549;179;26432;-84
2024/03/20 10:19:53;;;;;;;18.83;10.20;;;18.00;99.20;;;;;;809481;177;26481;-85
2024/03/20 10:22:20;;;;;;;17.87;9.30;;;18.00;99.30;;;;;;806527;176;26498;-84
2024/03/20 10:24:47;;;;;;;19.07;9.37;;;18.00;97.90;;;;;;807259;174;26453;-84
2024/03/20 10:27:24;;;;;;;;;;;;;;;;;;;;;
2024/03/20 10:29:50;;;;;;;18.70;8.57;;;18.30;97.20;;;;;;806630;176;26521;-84
2024/03/20 10:32:17;;;;;;;14.03;7.97;;;18.40;96.40;;;;;;804449;177;26437;-85
2024/03/20 10:34:44;;;;;;;12.40;7.87;;;18.40;93.80;;;;;;808683;176;26419;-83
2024/03/20 10:37:11;;;;;;;19.13;9.77;;;18.30;95.20;;;;;;811137;176;26472;-82
2024/03/20 10:39:38;;;;;;;14.87;8.27;;;18.40;93.90;;;;;;810789;176;26456;-84
2024/03/20 10:42:05;;;;;;;13.97;9.53;;;18.40;92.60;;;;;;810076;177;26437;-83
2024/03/20 10:44:31;;;;;;;12.77;7.63;;;18.50;93.00;;;;;;803525;178;26429;-82
2024/03/20 10:46:58;;;;;;;14.47;7.17;;;18.20;90.90;;;;;;805465;178;26453;-83
2024/03/20 10:49:25;;;;;;;13.93;8.83;;;18.40;90.80;;;;;;802947;178;26452;-83
2024/03/20 10:51:52;;;;;;;14.43;8.83;;;19.20;92.60;;;;;;802146;178;26575;-83
2024/03/20 10:54:19;;;;;;;15.87;8.20;;;20.10;85.20;;;;;;810164;176;26572;-81
2024/03/20 10:56:48;;;;;;;12.00;7.67;;;20.80;75.70;;;;;;802323;176;26432;-82
2024/03/20 10:59:19;;;;;;;15.50;8.43;;;21.00;73.60;;;;;;801690;178;26496;-82
2024/03/20 11:01:55;;;;;;;16.50;9.90;;;21.60;72.10;;;;;;801377;178;26432;-82
2024/03/20 11:04:33;;;;;;;11.83;6.97;;;22.20;64.10;;;;;;806475;178;26424;-83
2024/03/20 11:07:00;;;;;;;11.77;6.27;;;22.70;61.60;;;;;;801465;178;26432;-81
2024/03/20 11:09:30;;;;;;;11.27;6.00;;;23.00;56.40;;;;;;809125;177;26470;-82
2024/03/20 11:11:57;;;;;;;10.00;5.20;;;22.90;58.00;;;;;;807824;178;26632;-83
2024/03/20 11:14:31;;;;;;;10.43;6.10;;;22.90;57.10;;;;;;801861;176;26452;-83
2024/03/20 11:17:01;;;;;;;17.37;7.03;;;22.90;65.00;;;;;;807953;175;26440;-83
2024/03/20 11:19:27;;;;;;;11.30;6.93;;;22.90;61.90;;;;;;805719;177;26464;-84
2024/03/20 11:21:55;;;;;;;15.07;6.60;;;23.20;65.10;;;;;;809087;176;26485;-84
2024/03/20 11:24:21;;;;;;;13.53;6.73;;;23.20;60.20;;;;;;807636;177;26425;-83
2024/03/20 11:26:47;;;;;;;11.13;6.00;;;23.20;60.60;;;;;;805879;176;26428;-84
2024/03/20 11:29:14;;;;;;;11.77;7.53;;;23.40;55.70;;;;;;801605;176;26474;-83
2024/03/20 11:31:41;;;;;;;11.63;6.37;;;23.90;53.30;;;;;;801644;176;26421;-84
2024/03/20 11:34:08;;;;;;;17.03;7.03;;;24.00;57.00;;;;;;804554;176;26460;-84
2024/03/20 11:36:34;;;;;;;12.80;7.07;;;24.40;56.30;;;;;;806783;176;26469;-84
2024/03/20 11:39:01;;;;;;;8.77;5.20;;;24.10;55.30;;;;;;808431;178;26475;-83
2024/03/20 11:41:28;;;;;;;11.47;5.10;;;23.60;47.60;;;;;;804552;177;26481;-83
2024/03/20 11:43:57;;;;;;;10.53;5.10;;;23.40;53.30;;;;;;803391;177;26432;-84
2024/03/20 11:46:23;;;;;;;9.17;4.67;;;23.80;55.70;;;;;;808517;176;26420;-83
2024/03/20 11:48:52;;;;;;;7.47;4.20;;;24.50;51.60;;;;;;801130;178;26456;-85
2024/03/20 11:51:19;;;;;;;7.40;4.47;;;25.00;47.00;;;;;;805951;178;26432;-83
2024/03/20 11:53:43;;;;;;;12.67;7.90;;;25.90;47.10;;;;;;802206;178;27022;-84
2024/03/20 11:56:10;;;;;;;10.33;4.77;;;26.00;46.40;;;;;;805633;178;26428;-84
2024/03/20 11:58:37;;;;;;;10.60;4.60;;;26.50;45.20;;;;;;800136;176;26449;-84
2024/03/20 12:01:05;;;;;;;5.93;3.73;;;26.90;45.30;;;;;;799976;178;26428;-83
2024/03/20 12:03:30;;;;;;;12.13;9.27;;;27.40;39.60;;;;;;801479;177;26458;-82
2024/03/20 12:06:07;;;;;;;13.83;7.40;;;27.70;40.00;;;;;;802162;176;26422;-82
2024/03/20 12:08:34;;;;;;;7.27;3.23;;;27.50;39.20;;;;;;809051;177;26443;-83
2024/03/20 12:11:00;;;;;;;6.17;3.20;;;26.60;39.90;;;;;;806123;178;26416;-83
2024/03/20 12:13:27;;;;;;;6.43;4.57;;;26.60;38.20;;;;;;803098;178;26518;-84
2024/03/20 12:15:54;;;;;;;10.07;3.87;;;26.70;40.90;;;;;;804512;176;26421;-84
2024/03/20 12:18:21;;;;;;;9.70;3.53;;;27.20;40.10;;;;;;806602;177;26428;-83
2024/03/20 12:20:47;;;;;;;6.53;4.23;;;27.50;39.20;;;;;;807656;177;26411;-84
2024/03/20 12:23:15;;;;;;;11.80;5.13;;;27.40;37.40;;;;;;806934;175;26429;-83
2024/03/20 12:25:41;;;;;;;11.03;4.10;;;27.00;39.40;;;;;;806849;176;27007;-84
2024/03/20 12:28:07;;;;;;;8.07;4.00;;;26.60;41.20;;;;;;806153;177;26979;-83
2024/03/20 12:30:34;;;;;;;9.60;4.00;;;26.40;39.10;;;;;;808228;175;26440;-84
2024/03/20 12:33:01;;;;;;;7.67;3.40;;;26.20;41.60;;;;;;803043;177;26445;-83
2024/03/20 12:35:28;;;;;;;7.00;3.27;;;26.90;37.70;;;;;;805967;177;26586;-83
2024/03/20 12:37:55;;;;;;;6.30;3.37;;;27.10;39.70;;;;;;807277;177;26437;-83
2024/03/20 12:40:22;;;;;;;7.47;3.03;;;26.80;35.20;;;;;;808180;177;26469;-83
2024/03/20 12:42:48;;;;;;;7.90;3.40;;;25.90;37.40;;;;;;804878;174;26608;-83
2024/03/20 12:45:15;;;;;;;6.67;3.20;;;25.70;40.50;;;;;;803843;177;26413;-83
2024/03/20 12:47:42;;;;;;;11.60;3.80;;;25.30;39.80;;;;;;800238;177;26443;-83
2024/03/20 12:50:11;;;;;;;5.83;4.20;;;25.30;40.00;;;;;;805783;177;26448;-84
2024/03/20 12:52:35;;;;;;;7.33;3.20;;;25.00;40.70;;;;;;809889;174;26427;-84